createdAt,value
2022-12-24T00:00:07.358Z,8.65
2022-12-24T00:02:34.313Z,8.85
2022-12-24T00:05:01.645Z,8.80
2022-12-24T00:07:28.716Z,8.83
2022-12-24T00:09:55.335Z,8.74
2022-12-24T00:12:22.039Z,8.79
2022-12-24T00:14:48.514Z,8.63
2022-12-24T00:17:15.147Z,8.60
2022-12-24T00:19:43.325Z,8.77
2022-12-24T00:22:09.965Z,8.77
2022-12-24T00:24:37.125Z,8.78
2022-12-24T00:27:05.656Z,8.58
2022-12-24T00:29:32.835Z,8.76
2022-12-24T00:31:59.777Z,8.77
2022-12-24T00:34:26.886Z,8.76
2022-12-24T00:36:53.459Z,8.59
2022-12-24T00:39:19.966Z,8.81
2022-12-24T00:41:46.522Z,8.75
2022-12-24T00:44:13.355Z,8.73
2022-12-24T00:46:41.462Z,8.81
2022-12-24T00:49:08.984Z,8.75
2022-12-24T00:51:37.114Z,8.82
2022-12-24T00:54:04.216Z,8.82
2022-12-24T00:56:30.831Z,8.82
2022-12-24T00:58:57.486Z,8.71
2022-12-24T01:01:25.551Z,8.84
2022-12-24T01:03:53.122Z,8.80
2022-12-24T01:06:21.388Z,8.87
2022-12-24T01:08:51.399Z,8.75
2022-12-24T01:11:18.532Z,8.90
2022-12-24T01:13:45.029Z,8.86
2022-12-24T01:16:20.813Z,8.91
2022-12-24T01:18:48.543Z,8.91
2022-12-24T01:21:15.461Z,8.90
2022-12-24T01:23:42.030Z,8.87
2022-12-24T01:26:12.102Z,8.94
2022-12-24T01:28:38.759Z,8.92
2022-12-24T01:31:17.161Z,8.91
2022-12-24T01:33:45.010Z,8.82
2022-12-24T01:36:12.615Z,8.80
2022-12-24T01:38:39.651Z,8.87
2022-12-24T01:41:25.209Z,8.72
2022-12-24T01:43:51.795Z,8.85
2022-12-24T01:46:30.066Z,8.87
2022-12-24T01:49:00.246Z,8.84
2022-12-24T01:51:56.011Z,8.83
2022-12-24T01:54:33.429Z,8.87
2022-12-24T01:57:11.281Z,8.87
2022-12-24T01:59:40.055Z,8.83
2022-12-24T02:02:07.213Z,8.80
2022-12-24T02:04:56.402Z,8.84
2022-12-24T02:07:23.205Z,8.79
2022-12-24T02:09:54.291Z,8.79
2022-12-24T02:12:20.951Z,8.72
2022-12-24T02:14:47.587Z,8.76
2022-12-24T02:17:20.189Z,8.82
2022-12-24T02:20:22.033Z,8.80
2022-12-24T02:23:09.635Z,8.80
2022-12-24T02:25:45.261Z,8.80
2022-12-24T02:28:30.491Z,8.79
2022-12-24T02:31:13.813Z,8.74
2022-12-24T02:33:59.041Z,8.74
2022-12-24T02:36:33.102Z,8.60
2022-12-24T02:39:06.229Z,8.73
2022-12-24T02:42:18.496Z,8.69
2022-12-24T02:44:50.966Z,8.55
2022-12-24T02:47:20.492Z,8.66
2022-12-24T02:49:48.591Z,8.65
2022-12-24T02:52:38.505Z,8.65
2022-12-24T02:55:12.212Z,8.63
2022-12-24T02:58:00.475Z,8.62
2022-12-24T03:00:35.460Z,8.59
2022-12-24T03:03:09.260Z,8.54
2022-12-24T03:06:11.671Z,8.52
2022-12-24T03:08:53.022Z,8.41
2022-12-24T03:11:20.039Z,8.35
2022-12-24T03:13:48.529Z,8.45
2022-12-24T03:16:21.338Z,8.37
2022-12-24T03:18:50.817Z,8.29
2022-12-24T03:21:24.125Z,8.26
2022-12-24T03:23:50.660Z,8.36
2022-12-24T03:26:19.393Z,8.20
2022-12-24T03:28:47.293Z,8.32
2022-12-24T03:31:14.458Z,8.31
2022-12-24T03:33:41.676Z,8.07
2022-12-24T03:36:09.118Z,8.22
2022-12-24T03:38:36.079Z,8.13
2022-12-24T03:41:03.855Z,8.20
2022-12-24T03:43:30.413Z,8.07
2022-12-24T03:45:57.018Z,8.21
2022-12-24T03:48:27.457Z,8.26
2022-12-24T03:50:58.922Z,8.21
2022-12-24T03:53:25.386Z,8.26
2022-12-24T03:55:51.849Z,8.27
2022-12-24T03:58:18.331Z,8.06
2022-12-24T04:00:48.070Z,8.20
2022-12-24T04:03:14.656Z,8.26
2022-12-24T04:05:41.432Z,8.19
2022-12-24T04:08:07.943Z,8.22
2022-12-24T04:10:34.419Z,8.23
2022-12-24T04:13:00.941Z,8.24
2022-12-24T04:15:27.410Z,8.37
2022-12-24T04:17:53.868Z,8.32
2022-12-24T04:20:20.483Z,8.31
2022-12-24T04:22:47.027Z,8.40
2022-12-24T04:25:13.562Z,8.37
2022-12-24T04:27:40.099Z,8.32
2022-12-24T04:30:07.353Z,8.28
2022-12-24T04:32:33.926Z,8.37
2022-12-24T04:35:00.392Z,8.39
2022-12-24T04:37:26.879Z,8.41
2022-12-24T04:39:53.433Z,8.35
2022-12-24T04:42:19.891Z,8.27
2022-12-24T04:44:46.395Z,8.35
2022-12-24T04:47:13.000Z,8.28
2022-12-24T04:49:39.550Z,8.37
2022-12-24T04:52:06.024Z,8.31
2022-12-24T04:54:32.548Z,8.35
2022-12-24T04:56:59.099Z,8.32
2022-12-24T04:59:25.573Z,8.36
2022-12-24T05:01:52.210Z,8.31
2022-12-24T05:04:18.783Z,8.25
2022-12-24T05:06:45.264Z,8.22
2022-12-24T05:09:11.757Z,8.29
2022-12-24T05:11:38.264Z,8.21
2022-12-24T05:14:04.869Z,8.29
2022-12-24T05:16:31.421Z,8.25
2022-12-24T05:18:57.952Z,8.24
2022-12-24T05:21:25.057Z,8.11
2022-12-24T05:24:11.800Z,8.27
2022-12-24T05:26:54.948Z,8.25
2022-12-24T05:29:22.060Z,8.21
2022-12-24T05:31:48.758Z,8.23
2022-12-24T05:34:16.625Z,8.20
2022-12-24T05:36:44.188Z,8.21
2022-12-24T05:39:16.217Z,8.12
2022-12-24T05:41:43.807Z,8.14
2022-12-24T05:44:10.463Z,8.13
2022-12-24T05:46:37.217Z,8.17
2022-12-24T05:49:03.903Z,8.13
2022-12-24T05:51:30.374Z,8.12
2022-12-24T05:53:56.879Z,8.07
2022-12-24T05:56:24.847Z,8.06
2022-12-24T05:58:53.561Z,7.99
2022-12-24T06:01:21.704Z,7.99
2022-12-24T06:03:49.929Z,7.90
2022-12-24T06:06:20.810Z,7.94
2022-12-24T06:08:48.499Z,7.93
2022-12-24T06:11:18.499Z,7.91
2022-12-24T06:13:45.133Z,7.86
2022-12-24T06:16:14.372Z,7.80
2022-12-24T06:18:41.544Z,7.81
2022-12-24T06:21:09.073Z,7.75
2022-12-24T06:23:38.093Z,7.60
2022-12-24T06:26:07.799Z,7.65
2022-12-24T06:28:36.307Z,7.59
2022-12-24T06:31:04.146Z,7.52
2022-12-24T06:33:32.196Z,7.54
2022-12-24T06:35:59.527Z,7.54
2022-12-24T06:38:32.101Z,7.46
2022-12-24T06:40:58.698Z,7.31
2022-12-24T06:43:25.722Z,7.39
2022-12-24T06:45:52.332Z,7.39
2022-12-24T06:48:18.825Z,7.27
2022-12-24T06:50:45.294Z,7.24
2022-12-24T06:53:11.980Z,7.18
2022-12-24T06:55:38.697Z,7.08
2022-12-24T06:58:05.775Z,7.12
2022-12-24T07:00:32.370Z,6.96
2022-12-24T07:02:59.041Z,6.92
2022-12-24T07:05:25.767Z,6.92
2022-12-24T07:07:52.394Z,6.94
2022-12-24T07:10:20.431Z,6.82
2022-12-24T07:12:47.691Z,6.84
2022-12-24T07:15:15.114Z,6.66
2022-12-24T07:17:41.921Z,6.82
2022-12-24T07:20:12.516Z,6.77
2022-12-24T07:22:39.019Z,6.65
2022-12-24T07:25:06.064Z,6.66
2022-12-24T07:27:32.714Z,6.57
2022-12-24T07:29:59.180Z,6.53
2022-12-24T07:32:25.911Z,6.45
2022-12-24T07:34:52.518Z,6.37
2022-12-24T07:37:19.001Z,6.40
2022-12-24T07:39:45.768Z,6.39
2022-12-24T07:42:12.274Z,6.20
2022-12-24T07:44:38.905Z,6.25
2022-12-24T07:47:05.472Z,6.27
2022-12-24T07:49:32.041Z,6.26
2022-12-24T07:51:58.611Z,6.03
2022-12-24T07:54:25.091Z,6.10
2022-12-24T07:56:51.640Z,6.19
2022-12-24T07:59:18.137Z,6.14
2022-12-24T08:01:45.775Z,5.99
2022-12-24T08:04:12.914Z,6.09
2022-12-24T08:06:40.092Z,6.01
2022-12-24T08:09:06.829Z,6.02
2022-12-24T08:11:33.554Z,5.97
2022-12-24T08:14:00.079Z,5.90
2022-12-24T08:16:26.586Z,5.87
2022-12-24T08:18:53.133Z,5.75
2022-12-24T08:21:19.583Z,5.81
2022-12-24T08:23:46.898Z,5.75
2022-12-24T08:26:13.783Z,5.77
2022-12-24T08:28:40.699Z,5.78
2022-12-24T08:31:07.502Z,5.74
2022-12-24T08:33:34.399Z,5.59
2022-12-24T08:36:02.634Z,5.77
2022-12-24T08:38:29.295Z,5.66
2022-12-24T08:40:55.955Z,5.75
2022-12-24T08:43:22.794Z,5.73
2022-12-24T08:45:50.093Z,5.64
2022-12-24T08:48:17.356Z,5.62
2022-12-24T08:50:44.223Z,5.57
2022-12-24T08:53:11.076Z,5.59
2022-12-24T08:55:38.128Z,5.55
2022-12-24T08:58:04.761Z,5.66
2022-12-24T09:00:31.574Z,5.69
2022-12-24T09:02:58.404Z,5.67
2022-12-24T09:05:26.131Z,5.60
2022-12-24T09:07:52.909Z,5.66
2022-12-24T09:10:19.806Z,5.74
2022-12-24T09:12:46.755Z,5.76
2022-12-24T09:15:14.350Z,5.79
2022-12-24T09:17:41.283Z,5.69
2022-12-24T09:20:08.697Z,5.83
2022-12-24T09:22:37.494Z,5.89
2022-12-24T09:25:06.352Z,5.83
2022-12-24T09:27:33.705Z,5.94
2022-12-24T09:30:00.353Z,6.03
2022-12-24T09:32:26.917Z,5.93
2022-12-24T09:34:53.774Z,5.87
2022-12-24T09:37:20.595Z,6.17
2022-12-24T09:39:47.081Z,6.26
2022-12-24T09:42:41.393Z,6.34
2022-12-24T09:45:24.482Z,6.41
2022-12-24T09:47:55.506Z,6.49
2022-12-24T09:50:31.204Z,6.40
2022-12-24T09:53:00.774Z,6.67
2022-12-24T09:55:32.607Z,6.65
2022-12-24T09:58:02.501Z,6.76
2022-12-24T10:00:37.637Z,6.92
2022-12-24T10:03:17.788Z,7.00
2022-12-24T10:06:05.728Z,7.08
2022-12-24T10:08:44.425Z,7.17
2022-12-24T10:11:20.544Z,7.13
2022-12-24T10:14:23.191Z,7.25
2022-12-24T10:17:15.871Z,7.40
2022-12-24T10:20:07.298Z,7.47
2022-12-24T10:22:44.085Z,7.52
2022-12-24T10:25:20.549Z,7.57
2022-12-24T10:27:47.817Z,7.60
2022-12-24T10:30:17.775Z,7.63
2022-12-24T10:32:47.190Z,7.70
2022-12-24T10:35:16.666Z,7.68
2022-12-24T10:37:45.181Z,7.86
2022-12-24T10:40:37.993Z,7.93
2022-12-24T10:43:23.234Z,7.97
2022-12-24T10:45:53.738Z,8.00
2022-12-24T10:48:30.394Z,7.92
2022-12-24T10:51:02.721Z,8.18
2022-12-24T10:53:40.493Z,8.23
2022-12-24T10:56:10.251Z,8.29
2022-12-24T10:58:37.333Z,8.30
2022-12-24T11:01:04.263Z,8.36
2022-12-24T11:03:34.890Z,8.45
2022-12-24T11:06:13.491Z,8.47
2022-12-24T11:08:45.332Z,8.47
2022-12-24T11:11:15.640Z,8.56
2022-12-24T11:13:57.143Z,8.69
2022-12-24T11:16:26.477Z,8.77
2022-12-24T11:18:56.069Z,8.78
2022-12-24T11:21:28.695Z,8.86
2022-12-24T11:24:20.200Z,8.92
2022-12-24T11:26:46.706Z,8.99
2022-12-24T11:29:16.075Z,9.12
2022-12-24T11:31:44.412Z,9.12
2022-12-24T11:34:22.566Z,9.24
2022-12-24T11:36:50.890Z,9.24
2022-12-24T11:39:23.414Z,9.30
2022-12-24T11:41:53.777Z,9.37
2022-12-24T11:44:26.741Z,9.47
2022-12-24T11:46:57.242Z,9.59
2022-12-24T11:49:27.945Z,9.66
2022-12-24T11:52:22.201Z,9.76
2022-12-24T11:54:59.809Z,9.83
2022-12-24T11:57:32.954Z,9.89
2022-12-24T11:59:59.497Z,9.89
2022-12-24T12:02:38.081Z,9.91
2022-12-24T12:05:11.348Z,9.92
2022-12-24T12:07:39.095Z,10.10
2022-12-24T12:10:20.905Z,10.14
2022-12-24T12:12:57.892Z,10.18
2022-12-24T12:15:28.512Z,10.18
2022-12-24T12:18:00.695Z,10.27
2022-12-24T12:20:39.288Z,10.35
2022-12-24T12:23:18.624Z,10.40
2022-12-24T12:26:01.789Z,10.30
2022-12-24T12:28:46.946Z,10.37
2022-12-24T12:31:22.335Z,10.51
2022-12-24T12:33:57.311Z,10.38
2022-12-24T12:36:31.420Z,10.55
2022-12-24T12:38:58.048Z,10.55
2022-12-24T12:41:27.258Z,10.58
2022-12-24T12:44:04.759Z,10.58
2022-12-24T12:46:47.971Z,10.57
2022-12-24T12:49:14.420Z,10.64
2022-12-24T12:51:57.906Z,10.67
2022-12-24T12:54:46.100Z,10.71
2022-12-24T12:57:17.009Z,10.74
2022-12-24T12:59:53.888Z,10.76
2022-12-24T13:03:14.847Z,10.83
2022-12-24T13:05:53.446Z,10.86
2022-12-24T13:08:31.983Z,10.88
2022-12-24T13:11:24.875Z,10.91
2022-12-24T13:14:16.162Z,10.96
2022-12-24T13:16:53.330Z,10.99
2022-12-24T13:19:56.763Z,11.01
2022-12-24T13:22:23.420Z,11.03
2022-12-24T13:24:59.165Z,10.95
2022-12-24T13:27:32.141Z,11.13
2022-12-24T13:30:09.638Z,10.98
2022-12-24T13:32:47.458Z,11.21
2022-12-24T13:35:19.979Z,11.22
2022-12-24T13:37:50.804Z,11.05
2022-12-24T13:40:27.037Z,11.11
2022-12-24T13:43:00.088Z,11.21
2022-12-24T13:45:29.879Z,11.22
2022-12-24T13:48:05.586Z,11.22
2022-12-24T13:50:50.406Z,11.21
2022-12-24T13:53:26.505Z,11.26
2022-12-24T13:55:55.782Z,11.24
2022-12-24T13:58:24.852Z,11.00
2022-12-24T14:01:02.072Z,11.24
2022-12-24T14:03:36.147Z,11.15
2022-12-24T14:06:13.756Z,11.15
2022-12-24T14:08:45.912Z,11.19
2022-12-24T14:11:14.248Z,11.10
2022-12-24T14:13:40.838Z,11.20
2022-12-24T14:16:28.575Z,11.21
2022-12-24T14:19:38.967Z,11.18
2022-12-24T14:22:34.101Z,11.19
2022-12-24T14:25:17.984Z,11.19
2022-12-24T14:27:54.151Z,11.22
2022-12-24T14:30:26.272Z,11.24
2022-12-24T14:32:54.156Z,11.08
2022-12-24T14:35:30.685Z,11.10
2022-12-24T14:37:58.756Z,11.20
2022-12-24T14:40:30.607Z,11.18
2022-12-24T14:43:16.447Z,11.09
2022-12-24T14:45:56.430Z,11.14
2022-12-24T14:48:29.820Z,11.11
2022-12-24T14:51:10.026Z,11.09
2022-12-24T14:54:19.084Z,11.05
2022-12-24T14:56:45.610Z,11.03
2022-12-24T14:59:17.239Z,11.02
2022-12-24T15:01:44.374Z,10.98
2022-12-24T15:04:10.909Z,10.96
2022-12-24T15:06:40.425Z,10.96
2022-12-24T15:09:19.592Z,10.93
2022-12-24T15:11:48.360Z,10.91
2022-12-24T15:14:16.457Z,10.88
2022-12-24T15:16:58.196Z,10.84
2022-12-24T15:19:29.166Z,10.71
2022-12-24T15:21:55.956Z,10.72
2022-12-24T15:24:32.256Z,10.85
2022-12-24T15:27:00.132Z,10.86
2022-12-24T15:29:32.490Z,10.87
2022-12-24T15:32:05.702Z,10.86
2022-12-24T15:34:36.043Z,10.75
2022-12-24T15:37:18.081Z,10.88
2022-12-24T15:39:52.230Z,10.78
2022-12-24T15:42:22.373Z,10.90
2022-12-24T15:45:05.895Z,10.78
2022-12-24T15:47:42.774Z,10.71
2022-12-24T15:50:17.154Z,10.76
2022-12-24T15:52:44.511Z,10.74
2022-12-24T15:55:33.533Z,10.85
2022-12-24T15:58:02.323Z,10.73
2022-12-24T16:00:31.224Z,10.79
2022-12-24T16:03:30.379Z,10.80
2022-12-24T16:06:01.220Z,10.78
2022-12-24T16:08:33.217Z,10.77
2022-12-24T16:11:05.881Z,10.75
2022-12-24T16:13:39.696Z,10.54
2022-12-24T16:16:08.586Z,10.73
2022-12-24T16:18:38.847Z,10.68
2022-12-24T16:21:07.440Z,10.56
2022-12-24T16:23:46.176Z,10.62
2022-12-24T16:26:12.772Z,10.50
2022-12-24T16:28:39.489Z,10.47
2022-12-24T16:31:06.151Z,10.23
2022-12-24T16:33:32.696Z,10.28
2022-12-24T16:35:59.354Z,10.20
2022-12-24T16:38:25.968Z,10.24
2022-12-24T16:40:52.795Z,10.22
2022-12-24T16:43:37.988Z,10.27
2022-12-24T16:46:07.399Z,10.12
2022-12-24T16:48:37.520Z,10.07
2022-12-24T16:51:04.120Z,10.08
2022-12-24T16:53:30.770Z,10.05
2022-12-24T16:55:57.277Z,10.13
2022-12-24T16:58:23.774Z,10.11
2022-12-24T17:00:50.272Z,10.12
2022-12-24T17:03:17.051Z,10.01
2022-12-24T17:05:44.577Z,10.23
2022-12-24T17:08:12.193Z,10.23
2022-12-24T17:10:38.982Z,10.15
2022-12-24T17:13:05.803Z,10.11
2022-12-24T17:15:32.705Z,10.21
2022-12-24T17:17:59.322Z,10.28
2022-12-24T17:20:26.530Z,10.23
2022-12-24T17:22:53.094Z,10.15
2022-12-24T17:25:19.820Z,10.27
2022-12-24T17:27:46.356Z,10.14
2022-12-24T17:30:13.189Z,10.28
2022-12-24T17:32:39.889Z,10.27
2022-12-24T17:35:07.645Z,10.21
2022-12-24T17:37:34.213Z,10.26
2022-12-24T17:40:00.902Z,10.15
2022-12-24T17:42:27.495Z,10.24
2022-12-24T17:44:53.988Z,10.16
2022-12-24T17:47:20.443Z,10.23
2022-12-24T17:49:46.974Z,10.23
2022-12-24T17:52:13.545Z,10.22
2022-12-24T17:54:40.084Z,10.02
2022-12-24T17:57:06.650Z,10.05
2022-12-24T17:59:33.145Z,10.10
2022-12-24T18:01:59.886Z,9.97
2022-12-24T18:04:26.579Z,10.09
2022-12-24T18:06:59.658Z,10.20
2022-12-24T18:09:28.949Z,10.22
2022-12-24T18:11:55.535Z,10.13
2022-12-24T18:14:22.089Z,10.32
2022-12-24T18:16:49.473Z,10.32
2022-12-24T18:19:16.403Z,10.31
2022-12-24T18:21:42.929Z,10.37
2022-12-24T18:24:12.343Z,10.20
2022-12-24T18:26:39.368Z,10.20
2022-12-24T18:29:06.134Z,10.30
2022-12-24T18:31:34.249Z,10.26
2022-12-24T18:34:02.952Z,10.20
2022-12-24T18:36:29.818Z,10.19
2022-12-24T18:38:56.828Z,10.31
2022-12-24T18:41:26.939Z,10.41
2022-12-24T18:43:54.623Z,10.28
2022-12-24T18:46:27.214Z,10.46
2022-12-24T18:48:57.615Z,10.36
2022-12-24T18:51:26.815Z,10.40
2022-12-24T18:53:53.295Z,10.50
2022-12-24T18:56:24.773Z,10.56
2022-12-24T18:59:01.633Z,10.44
2022-12-24T19:01:33.850Z,10.53
2022-12-24T19:04:00.911Z,10.64
2022-12-24T19:06:27.921Z,10.46
2022-12-24T19:08:58.559Z,10.59
2022-12-24T19:11:28.630Z,10.54
2022-12-24T19:13:55.413Z,10.60
2022-12-24T19:16:22.461Z,10.59
2022-12-24T19:18:49.836Z,10.49
2022-12-24T19:21:17.846Z,10.63
2022-12-24T19:23:45.589Z,10.60
2022-12-24T19:26:13.387Z,10.63
2022-12-24T19:28:40.263Z,10.54
2022-12-24T19:31:10.052Z,10.58
2022-12-24T19:33:43.883Z,10.66
2022-12-24T19:36:16.649Z,10.71
2022-12-24T19:38:43.906Z,10.66
2022-12-24T19:41:16.032Z,10.72
2022-12-24T19:43:45.384Z,10.71
2022-12-24T19:46:14.617Z,10.57
2022-12-24T19:48:42.607Z,10.72
2022-12-24T19:51:12.242Z,10.67
2022-12-24T19:53:39.583Z,10.59
2022-12-24T19:56:06.954Z,10.71
2022-12-24T19:58:33.513Z,10.50
2022-12-24T20:01:15.646Z,10.72
2022-12-24T20:03:44.331Z,10.72
2022-12-24T20:06:11.769Z,10.67
2022-12-24T20:08:38.762Z,10.62
2022-12-24T20:11:07.954Z,10.69
2022-12-24T20:13:35.358Z,10.70
2022-12-24T20:16:17.454Z,10.71
2022-12-24T20:18:44.118Z,10.70
2022-12-24T20:21:13.081Z,10.67
2022-12-24T20:23:41.190Z,10.70
2022-12-24T20:26:11.029Z,10.74
2022-12-24T20:28:38.505Z,10.73
2022-12-24T20:31:13.668Z,10.68
2022-12-24T20:33:41.351Z,10.74
2022-12-24T20:36:11.316Z,10.76
2022-12-24T20:38:39.058Z,10.65
2022-12-24T20:41:06.369Z,10.63
2022-12-24T20:43:37.304Z,10.67
2022-12-24T20:46:07.161Z,10.77
2022-12-24T20:48:33.872Z,10.75
2022-12-24T20:51:04.544Z,10.67
2022-12-24T20:53:31.057Z,10.56
2022-12-24T20:55:58.148Z,10.57
2022-12-24T20:58:24.661Z,10.72
2022-12-24T21:00:51.423Z,10.75
2022-12-24T21:03:18.775Z,10.75
2022-12-24T21:05:45.972Z,10.80
2022-12-24T21:08:13.513Z,10.82
2022-12-24T21:10:40.420Z,10.76
2022-12-24T21:13:07.532Z,10.72
2022-12-24T21:15:36.706Z,10.83
2022-12-24T21:18:10.201Z,10.83
2022-12-24T21:20:37.132Z,10.81
2022-12-24T21:23:03.709Z,10.78
2022-12-24T21:25:30.248Z,10.65
2022-12-24T21:27:56.740Z,10.67
2022-12-24T21:30:24.360Z,10.77
2022-12-24T21:32:51.307Z,10.68
2022-12-24T21:35:17.883Z,10.62
2022-12-24T21:37:44.500Z,10.73
2022-12-24T21:40:12.403Z,10.69
2022-12-24T21:42:38.914Z,10.79
2022-12-24T21:45:06.928Z,10.81
2022-12-24T21:47:35.261Z,10.79
2022-12-24T21:50:20.403Z,10.79
2022-12-24T21:52:46.933Z,10.84
2022-12-24T21:55:13.434Z,10.83
2022-12-24T21:57:55.078Z,10.82
2022-12-24T22:00:21.689Z,10.82
2022-12-24T22:02:54.098Z,10.73
2022-12-24T22:05:21.070Z,10.71
2022-12-24T22:08:07.955Z,10.80
2022-12-24T22:10:53.048Z,10.68
2022-12-24T22:13:20.623Z,10.65
2022-12-24T22:15:53.107Z,10.85
2022-12-24T22:18:22.643Z,10.86
2022-12-24T22:20:49.559Z,10.83
2022-12-24T22:23:17.500Z,10.78
2022-12-24T22:25:44.861Z,10.90
2022-12-24T22:28:11.743Z,10.87
2022-12-24T22:30:42.617Z,10.87
2022-12-24T22:33:10.035Z,10.83
2022-12-24T22:35:40.405Z,10.97
2022-12-24T22:38:09.065Z,11.00
2022-12-24T22:40:38.437Z,11.00
2022-12-24T22:43:04.928Z,11.03
2022-12-24T22:45:31.610Z,10.99
2022-12-24T22:47:58.094Z,10.89
2022-12-24T22:50:24.588Z,11.05
2022-12-24T22:52:52.704Z,10.96
2022-12-24T22:55:19.439Z,10.91
2022-12-24T22:57:45.985Z,11.06
2022-12-24T23:00:36.901Z,11.07
2022-12-24T23:03:05.145Z,11.05
2022-12-24T23:05:31.941Z,11.09
2022-12-24T23:07:58.577Z,11.10
2022-12-24T23:10:25.093Z,11.09
2022-12-24T23:13:14.851Z,11.09
2022-12-24T23:15:42.379Z,11.11
2022-12-24T23:18:09.105Z,11.07
2022-12-24T23:20:40.852Z,11.00
2022-12-24T23:23:07.327Z,11.07
2022-12-24T23:25:34.063Z,11.08
2022-12-24T23:28:00.839Z,11.10
2022-12-24T23:30:27.402Z,11.09
2022-12-24T23:32:54.919Z,11.07
2022-12-24T23:35:21.648Z,11.06
2022-12-24T23:37:48.235Z,11.05
2022-12-24T23:40:14.740Z,11.10
2022-12-24T23:42:41.262Z,11.11
2022-12-24T23:45:08.255Z,11.10
2022-12-24T23:47:35.665Z,10.95
2022-12-24T23:50:02.291Z,11.07
2022-12-24T23:52:28.819Z,11.03
2022-12-24T23:54:55.365Z,11.01
2022-12-24T23:57:21.879Z,11.05
2022-12-24T23:59:48.550Z,11.02
